Time;durP1;ratioP1;P1;durP2;ratioP2;P2;SDS_P1;SDS_P2;PMS_P1;PMS_P2;Temp;Humidity;BMP_temperature;BMP_pressure;BME280_temperature;BME280_humidity;BME280_pressure;Samples;Min_cycle;Max_cycle;Signal;HPM_P1;HPM_P2
2022/04/09 00:02:08;;;;;;;11.00;2.85;;;4.30;99.90;;;;;;4999120;28;20074;-72
2022/04/09 00:04:34;;;;;;;12.27;2.53;;;4.30;99.90;;;;;;4999116;28;20046;-70
2022/04/09 00:06:59;;;;;;;16.75;2.75;;;4.40;99.90;;;;;;4998931;28;20054;-72
2022/04/09 00:09:25;;;;;;;12.82;2.20;;;4.80;99.90;;;;;;4998249;28;20053;-72
2022/04/09 00:11:51;;;;;;;12.55;2.10;;;4.40;99.90;;;;;;4998984;28;20049;-73
2022/04/09 00:14:17;;;;;;;10.73;2.63;;;4.40;99.90;;;;;;4982227;28;20213;-72
2022/04/09 00:16:43;;;;;;;10.63;2.42;;;4.40;99.90;;;;;;4999223;28;20450;-71
2022/04/09 00:19:09;;;;;;;12.68;2.10;;;4.30;99.90;;;;;;4977931;28;20057;-72
2022/04/09 00:21:35;;;;;;;10.13;2.38;;;4.20;99.90;;;;;;4979137;28;20042;-73
2022/04/09 00:24:00;;;;;;;9.93;2.30;;;4.10;99.90;;;;;;4979006;28;20118;-72
2022/04/09 00:26:26;;;;;;;10.27;2.55;;;4.10;99.90;;;;;;4979498;28;20146;-72
2022/04/09 00:28:52;;;;;;;11.60;3.00;;;4.00;99.90;;;;;;4993342;28;20049;-73
2022/04/09 00:31:17;;;;;;;14.35;2.92;;;3.90;99.90;;;;;;4998703;28;20054;-72
2022/04/09 00:33:43;;;;;;;11.85;2.83;;;3.90;99.90;;;;;;4998495;28;20053;-73
2022/04/09 00:36:08;;;;;;;7.95;2.72;;;4.10;99.90;;;;;;4964554;28;20046;-73
2022/04/09 00:38:34;;;;;;;9.02;2.60;;;3.80;99.90;;;;;;4980552;28;20054;-71
2022/04/09 00:40:59;;;;;;;11.60;2.88;;;3.80;99.90;;;;;;4981209;28;20065;-72
2022/04/09 00:43:25;;;;;;;13.85;2.78;;;3.70;99.90;;;;;;4998785;28;20042;-72
2022/04/09 00:45:52;;;;;;;10.13;2.67;;;3.70;99.90;;;;;;4998345;28;20178;-72
2022/04/09 00:48:21;;;;;;;11.45;2.92;;;3.70;99.90;;;;;;4997969;28;20369;-72
2022/04/09 00:50:47;;;;;;;12.02;2.30;;;3.70;99.90;;;;;;4997439;28;20047;-72
2022/04/09 00:53:15;;;;;;;11.40;2.50;;;3.70;99.90;;;;;;4998334;28;20042;-71
2022/04/09 00:58:28;;;;;;;9.77;2.45;;;3.80;99.90;;;;;;4996286;28;20078;-72
2022/04/09 01:00:54;;;;;;;10.48;2.50;;;3.90;99.90;;;;;;4997623;28;20078;-72
2022/04/09 01:03:21;;;;;;;5.82;1.90;;;4.30;99.90;;;;;;4997840;28;20092;-72
2022/04/09 01:05:48;;;;;;;6.22;2.05;;;4.10;99.90;;;;;;4997908;28;20050;-72
2022/04/09 01:08:15;;;;;;;12.05;2.00;;;5.10;99.90;;;;;;4979515;28;20402;-71
2022/04/09 01:10:44;;;;;;;7.95;1.95;;;4.20;99.90;;;;;;4997139;28;20100;-72
2022/04/09 01:13:09;;;;;;;10.52;2.30;;;4.20;99.90;;;;;;4997847;28;20369;-72
2022/04/09 01:15:35;;;;;;;8.98;2.53;;;4.10;99.90;;;;;;4997936;28;20042;-72
2022/04/09 01:18:01;;;;;;;4.50;1.70;;;4.00;99.90;;;;;;4979755;28;20125;-71
2022/04/09 01:20:28;;;;;;;5.03;1.63;;;4.00;99.90;;;;;;4995071;28;20046;-73
2022/04/09 01:22:54;;;;;;;7.35;1.70;;;3.90;99.90;;;;;;4980404;28;20061;-72
2022/04/09 01:25:20;;;;;;;7.15;1.60;;;3.80;99.90;;;;;;4997653;28;20139;-73
2022/04/09 01:27:48;;;;;;;6.53;1.75;;;4.00;99.90;;;;;;4996922;28;20055;-72
2022/04/09 01:30:16;;;;;;;6.70;1.90;;;3.80;99.90;;;;;;4997302;28;20068;-72
2022/04/09 01:32:41;;;;;;;11.55;1.77;;;3.70;99.90;;;;;;4997518;28;20362;-73
2022/04/09 01:35:07;;;;;;;6.53;2.13;;;3.70;99.90;;;;;;4997526;28;20146;-71
2022/04/09 01:37:33;;;;;;;10.88;1.73;;;3.70;99.90;;;;;;4996891;28;20073;-72
2022/04/09 01:39:59;;;;;;;11.13;2.00;;;3.70;99.90;;;;;;4964551;28;20463;-71
2022/04/09 01:42:26;;;;;;;16.98;2.40;;;3.70;99.90;;;;;;4997245;28;20378;-72
2022/04/09 01:44:52;;;;;;;8.48;1.88;;;3.70;99.90;;;;;;4997318;28;20356;-72
2022/04/09 01:47:18;;;;;;;10.65;2.20;;;3.70;99.90;;;;;;4997243;28;20046;-72
2022/04/09 01:49:43;;;;;;;11.27;2.25;;;3.70;99.90;;;;;;4996953;28;20108;-73
2022/04/09 01:52:09;;;;;;;9.02;1.70;;;3.60;99.90;;;;;;4997053;28;20050;-72
2022/04/09 01:54:34;;;;;;;6.22;2.42;;;3.60;99.90;;;;;;4976862;28;20064;-72
2022/04/09 01:57:00;;;;;;;8.32;1.88;;;3.60;99.90;;;;;;4979895;28;20049;-73
2022/04/09 01:59:26;;;;;;;11.05;1.90;;;3.50;99.90;;;;;;4996725;28;20499;-72
2022/04/09 02:01:52;;;;;;;10.70;2.40;;;3.50;99.90;;;;;;4979507;28;20082;-72
2022/04/09 02:04:17;;;;;;;9.23;1.88;;;3.50;99.90;;;;;;4996526;28;20043;-71
2022/04/09 02:06:44;;;;;;;12.75;2.25;;;3.40;99.90;;;;;;4996409;28;20125;-71
2022/04/09 02:09:12;;;;;;;7.10;2.15;;;3.40;99.90;;;;;;4979336;28;20057;-73
2022/04/09 02:11:39;;;;;;;8.68;2.15;;;3.40;99.90;;;;;;4996833;28;20050;-72
2022/04/09 02:14:07;;;;;;;13.73;2.42;;;3.30;99.90;;;;;;4996870;28;20046;-72
2022/04/09 02:16:33;;;;;;;9.73;2.20;;;3.20;99.90;;;;;;4995366;28;20391;-72
2022/04/09 02:18:59;;;;;;;11.95;2.13;;;3.20;99.90;;;;;;4979530;28;20046;-72
2022/04/09 02:21:25;;;;;;;10.20;2.38;;;3.20;99.90;;;;;;4963514;28;20555;-72
2022/04/09 02:23:50;;;;;;;10.88;2.42;;;3.60;99.90;;;;;;4979292;28;20422;-72
2022/04/09 02:26:16;;;;;;;13.75;2.30;;;3.30;99.90;;;;;;4995705;28;20370;-71
2022/04/09 02:28:41;;;;;;;14.95;2.42;;;3.40;99.90;;;;;;4995690;28;20071;-72
2022/04/09 02:31:07;;;;;;;10.73;2.55;;;3.40;99.90;;;;;;4995960;28;20061;-72
2022/04/09 02:33:33;;;;;;;10.52;2.58;;;3.40;99.90;;;;;;4996541;28;20344;-73
2022/04/09 02:35:59;;;;;;;10.02;2.45;;;3.40;99.90;;;;;;4996453;28;20042;-72
2022/04/09 02:38:25;;;;;;;13.32;2.40;;;3.30;99.90;;;;;;4994256;28;20050;-71
2022/04/09 02:40:51;;;;;;;9.32;2.35;;;3.30;99.90;;;;;;4996573;28;20104;-71
2022/04/09 02:43:16;;;;;;;8.45;2.20;;;3.20;99.90;;;;;;4995710;28;20121;-72
2022/04/09 02:45:42;;;;;;;11.27;2.67;;;3.20;99.90;;;;;;4979261;28;20054;-72
2022/04/09 02:48:08;;;;;;;9.18;2.25;;;3.20;99.90;;;;;;4994807;28;20065;-73
2022/04/09 02:50:33;;;;;;;11.93;2.30;;;3.10;99.90;;;;;;4995495;28;20042;-73
2022/04/09 02:52:59;;;;;;;6.63;1.95;;;3.10;99.90;;;;;;4995936;28;20046;-72
2022/04/09 02:55:24;;;;;;;6.97;2.17;;;3.10;99.90;;;;;;4996136;28;20061;-72
2022/04/09 02:57:50;;;;;;;13.13;2.70;;;3.10;99.90;;;;;;4995585;28;20047;-72
2022/04/09 03:00:16;;;;;;;14.95;2.60;;;3.10;99.90;;;;;;4995832;28;20444;-73
2022/04/09 03:02:42;;;;;;;11.30;2.22;;;3.20;99.90;;;;;;4995607;28;20138;-73
2022/04/09 03:05:08;;;;;;;8.23;2.10;;;3.20;99.90;;;;;;4995986;28;20117;-71
2022/04/09 03:07:34;;;;;;;8.57;2.42;;;3.40;99.90;;;;;;4978263;28;20042;-71
2022/04/09 03:10:01;;;;;;;14.43;2.53;;;3.20;99.90;;;;;;4962739;28;20050;-72
2022/04/09 03:12:26;;;;;;;11.68;2.45;;;3.20;99.90;;;;;;4995947;28;20336;-71
2022/04/09 03:14:52;;;;;;;13.07;2.13;;;3.20;99.90;;;;;;4995866;28;20117;-74
2022/04/09 03:17:18;;;;;;;9.65;2.25;;;3.20;99.90;;;;;;4995123;28;20057;-72
2022/04/09 03:19:43;;;;;;;8.73;2.35;;;3.20;99.90;;;;;;4995822;28;20049;-71
2022/04/09 03:22:09;;;;;;;15.75;2.58;;;3.20;99.90;;;;;;4978008;28;20054;-72
2022/04/09 03:24:34;;;;;;;11.32;2.50;;;3.30;99.90;;;;;;4995495;28;20061;-72
2022/04/09 03:27:00;;;;;;;11.20;2.65;;;3.40;99.90;;;;;;4995422;28;20054;-71
2022/04/09 03:29:25;;;;;;;9.00;2.42;;;3.40;99.90;;;;;;4995339;28;20470;-73
2022/04/09 03:31:51;;;;;;;9.25;2.20;;;3.50;99.90;;;;;;4996019;28;20145;-72
2022/04/09 03:34:16;;;;;;;10.43;2.15;;;3.50;99.90;;;;;;4978702;28;20046;-72
2022/04/09 03:36:42;;;;;;;13.80;2.60;;;3.50;99.90;;;;;;4977531;28;20057;-71
2022/04/09 03:39:08;;;;;;;15.13;2.55;;;3.50;99.90;;;;;;4995712;28;20133;-72
2022/04/09 03:41:34;;;;;;;10.68;2.88;;;3.50;99.90;;;;;;4995631;28;20050;-71
2022/04/09 03:43:59;;;;;;;12.38;2.25;;;3.50;99.90;;;;;;4994722;28;20050;-74
2022/04/09 03:46:25;;;;;;;10.75;2.13;;;3.50;99.90;;;;;;4995044;28;20104;-75
2022/04/09 03:48:51;;;;;;;18.80;2.55;;;3.40;99.90;;;;;;4994276;28;20054;-72
2022/04/09 03:51:16;;;;;;;8.55;1.92;;;3.40;99.90;;;;;;4995129;28;20057;-72
2022/04/09 03:53:42;;;;;;;9.82;2.33;;;3.30;99.90;;;;;;4995295;28;20430;-72
2022/04/09 03:56:07;;;;;;;11.65;2.50;;;3.30;99.90;;;;;;4995428;28;20498;-72
2022/04/09 03:58:36;;;;;;;9.50;2.00;;;3.30;99.90;;;;;;4994501;28;20086;-72
2022/04/09 04:01:01;;;;;;;12.13;2.50;;;3.20;99.90;;;;;;4995336;28;20054;-72
2022/04/09 04:03:28;;;;;;;6.85;2.30;;;3.20;99.90;;;;;;4995611;28;20321;-72
2022/04/09 04:05:54;;;;;;;7.25;2.13;;;3.10;99.90;;;;;;4979023;28;20042;-73
2022/04/09 04:08:19;;;;;;;10.55;2.30;;;3.00;99.90;;;;;;4994916;28;20042;-71
2022/04/09 04:10:45;;;;;;;9.52;2.35;;;3.00;99.90;;;;;;4995532;28;20050;-71
2022/04/09 04:13:11;;;;;;;11.10;2.53;;;2.90;99.90;;;;;;4995021;28;20121;-72
2022/04/09 04:15:37;;;;;;;8.45;2.20;;;2.90;99.90;;;;;;4977562;28;20054;-72
2022/04/09 04:18:03;;;;;;;9.10;2.00;;;2.90;99.90;;;;;;4993749;28;20042;-71
2022/04/09 04:20:29;;;;;;;7.88;2.25;;;2.90;99.90;;;;;;4977948;28;20096;-72
2022/04/09 04:22:55;;;;;;;10.57;2.20;;;2.90;99.90;;;;;;4978188;28;20451;-72
2022/04/09 04:25:21;;;;;;;8.77;2.35;;;2.80;99.90;;;;;;4995074;28;20128;-73
2022/04/09 04:27:49;;;;;;;9.77;2.00;;;2.80;99.90;;;;;;4994372;28;20122;-73
2022/04/09 04:30:15;;;;;;;10.48;2.10;;;2.80;99.90;;;;;;4994712;28;20054;-71
2022/04/09 04:32:42;;;;;;;9.85;2.15;;;2.80;99.90;;;;;;4995820;28;20057;-72
2022/04/09 04:35:08;;;;;;;11.45;2.33;;;2.90;99.90;;;;;;4998903;28;20433;-71
2022/04/09 04:37:41;;;;;;;19.73;2.28;;;2.90;99.90;;;;;;4997885;28;20049;-71
2022/04/09 04:40:07;;;;;;;14.95;2.22;;;2.90;99.90;;;;;;4998717;28;20046;-72
2022/04/09 04:42:33;;;;;;;7.95;1.83;;;2.90;99.90;;;;;;4978191;28;20050;-71
2022/04/09 04:44:59;;;;;;;10.15;1.95;;;3.00;99.90;;;;;;4998276;28;20061;-72
2022/04/09 04:47:24;;;;;;;10.93;2.50;;;3.00;99.90;;;;;;4998438;28;20362;-73
2022/04/09 04:49:50;;;;;;;12.10;2.10;;;3.00;99.90;;;;;;4998491;28;20050;-72
2022/04/09 04:52:15;;;;;;;11.10;2.25;;;3.10;99.90;;;;;;4998516;28;20039;-71
2022/04/09 04:54:41;;;;;;;12.32;2.30;;;3.00;99.90;;;;;;4998130;28;20480;-69
2022/04/09 04:57:06;;;;;;;13.73;3.17;;;3.00;99.90;;;;;;4997185;28;20517;-71
2022/04/09 04:59:32;;;;;;;8.75;1.77;;;2.90;99.90;;;;;;4997765;28;20046;-72
2022/04/09 05:01:58;;;;;;;11.82;1.92;;;3.00;99.90;;;;;;4995748;28;20073;-72
2022/04/09 05:04:25;;;;;;;8.95;2.22;;;3.00;99.90;;;;;;4991214;28;20422;-71
2022/04/09 05:06:51;;;;;;;8.90;1.80;;;3.00;99.90;;;;;;4961699;28;20059;-71
2022/04/09 05:09:17;;;;;;;11.57;1.90;;;3.00;99.90;;;;;;4974547;28;20451;-72
2022/04/09 05:11:43;;;;;;;5.82;1.65;;;3.00;99.90;;;;;;4980869;28;20112;-75
2022/04/09 05:14:08;;;;;;;11.02;1.60;;;3.00;99.90;;;;;;4997459;28;20046;-72
2022/04/09 05:16:34;;;;;;;7.80;1.85;;;3.00;99.90;;;;;;4997465;28;20344;-73
2022/04/09 05:19:00;;;;;;;7.97;1.92;;;3.00;99.90;;;;;;4996522;28;20046;-75
2022/04/09 05:21:26;;;;;;;5.72;1.80;;;3.00;99.90;;;;;;4997487;28;20077;-72
2022/04/09 05:23:51;;;;;;;12.38;2.20;;;3.50;99.90;;;;;;4997743;28;20050;-73
2022/04/09 05:26:17;;;;;;;10.20;2.17;;;3.00;99.90;;;;;;4976586;28;20474;-73
2022/04/09 05:28:42;;;;;;;9.50;1.73;;;3.10;99.90;;;;;;4997376;28;20042;-74
2022/04/09 05:31:11;;;;;;;10.40;1.90;;;3.10;99.90;;;;;;4997600;28;20052;-74
2022/04/09 05:33:37;;;;;;;9.50;2.10;;;3.10;99.90;;;;;;4997317;28;20050;-72
2022/04/09 05:36:05;;;;;;;13.00;1.83;;;3.30;99.90;;;;;;4979997;28;20053;-71
2022/04/09 05:38:31;;;;;;;14.13;2.90;;;3.40;99.90;;;;;;4997328;28;20047;-73
2022/04/09 05:40:57;;;;;;;13.85;2.47;;;3.50;99.90;;;;;;4997177;28;20481;-73
2022/04/09 05:43:23;;;;;;;9.93;2.08;;;3.60;99.90;;;;;;4997097;28;20046;-72
2022/04/09 05:45:49;;;;;;;10.43;2.10;;;3.60;99.90;;;;;;4996585;28;20050;-75
2022/04/09 05:48:15;;;;;;;9.60;2.70;;;3.60;99.90;;;;;;4997068;28;20451;-72
2022/04/09 05:50:40;;;;;;;11.60;2.13;;;3.60;99.90;;;;;;4980096;28;20042;-73
2022/04/09 05:53:06;;;;;;;13.38;2.42;;;3.70;99.90;;;;;;4980099;28;20058;-72
2022/04/09 05:55:32;;;;;;;10.90;2.20;;;3.80;99.90;;;;;;4996941;28;20133;-73
2022/04/09 05:57:57;;;;;;;14.07;2.40;;;4.00;99.90;;;;;;4996810;28;20034;-73
2022/04/09 06:00:23;;;;;;;15.90;2.35;;;4.20;99.90;;;;;;4996976;28;20042;-72
2022/04/09 06:02:49;;;;;;;9.13;2.60;;;4.40;99.90;;;;;;4960277;28;20372;-73
2022/04/09 06:05:14;;;;;;;14.75;2.65;;;4.50;99.90;;;;;;4980473;28;20049;-72
2022/04/09 06:07:40;;;;;;;11.70;2.45;;;4.60;99.90;;;;;;4976779;28;20042;-72
2022/04/09 06:10:06;;;;;;;13.05;2.53;;;4.50;99.90;;;;;;4996450;28;20116;-73
2022/04/09 06:12:33;;;;;;;11.07;2.20;;;4.50;99.90;;;;;;4996389;28;20042;-72
2022/04/09 06:15:00;;;;;;;15.68;2.38;;;4.50;99.90;;;;;;4996392;28;20053;-71
2022/04/09 06:17:26;;;;;;;8.13;2.53;;;4.40;99.90;;;;;;4995951;28;20462;-72
2022/04/09 06:19:52;;;;;;;12.50;2.83;;;4.40;99.90;;;;;;4996944;28;20053;-72
2022/04/09 06:22:18;;;;;;;12.60;2.53;;;4.40;99.90;;;;;;4996154;28;20109;-73
2022/04/09 06:24:44;;;;;;;12.85;2.50;;;4.40;99.90;;;;;;4995665;28;20533;-73
2022/04/09 06:27:13;;;;;;;7.65;2.25;;;4.40;99.90;;;;;;4996224;28;20108;-73
2022/04/09 06:29:39;;;;;;;12.70;2.72;;;4.40;99.90;;;;;;5005232;28;20113;-71
2022/04/09 06:32:05;;;;;;;10.35;2.40;;;4.40;99.90;;;;;;4987888;28;20473;-74
2022/04/09 06:34:31;;;;;;;11.77;2.53;;;4.40;99.90;;;;;;5003920;28;20047;-72
2022/04/09 06:36:56;;;;;;;13.98;2.95;;;4.40;99.90;;;;;;4995979;28;20054;-73
2022/04/09 06:39:23;;;;;;;15.43;2.92;;;5.20;99.90;;;;;;4957584;28;20082;-72
2022/04/09 06:41:51;;;;;;;16.92;2.30;;;6.40;99.90;;;;;;4980652;28;20490;-72
2022/04/09 06:44:17;;;;;;;12.98;2.30;;;7.20;99.90;;;;;;4994017;28;20339;-73
2022/04/09 06:46:43;;;;;;;11.63;2.20;;;7.30;99.90;;;;;;4978746;28;20065;-73
2022/04/09 06:49:13;;;;;;;10.93;2.55;;;7.30;99.90;;;;;;4982369;28;20065;-70
2022/04/09 06:51:39;;;;;;;10.20;2.35;;;7.10;99.90;;;;;;4997817;28;20042;-73
2022/04/09 06:54:05;;;;;;;9.75;1.80;;;7.00;99.90;;;;;;4975225;28;20394;-73
2022/04/09 06:56:31;;;;;;;14.20;2.28;;;6.90;99.90;;;;;;4995272;28;20121;-72
2022/04/09 06:58:56;;;;;;;13.98;3.17;;;7.00;99.90;;;;;;4995357;28;20574;-72
2022/04/09 07:01:22;;;;;;;7.18;1.85;;;7.20;99.90;;;;;;4977858;28;20426;-71
2022/04/09 07:03:47;;;;;;;12.65;3.30;;;7.20;99.90;;;;;;4995800;28;20482;-71
2022/04/09 07:06:15;;;;;;;12.52;3.03;;;7.10;99.90;;;;;;4995596;28;20054;-72
2022/04/09 07:08:41;;;;;;;11.30;2.03;;;7.10;99.90;;;;;;4996046;28;20057;-73
2022/04/09 07:11:07;;;;;;;13.68;2.50;;;6.80;99.90;;;;;;4995388;28;20046;-73
2022/04/09 07:13:33;;;;;;;13.80;2.28;;;6.90;99.90;;;;;;4995642;28;20050;-73
2022/04/09 07:15:58;;;;;;;11.77;2.13;;;6.90;99.90;;;;;;4995863;28;20070;-72
2022/04/09 07:18:24;;;;;;;9.20;2.50;;;6.90;99.90;;;;;;4995655;28;20042;-73
2022/04/09 07:20:50;;;;;;;8.35;1.83;;;7.00;99.90;;;;;;4994937;28;20046;-72
2022/04/09 07:23:15;;;;;;;13.30;2.50;;;7.10;99.90;;;;;;4995547;28;20053;-74
2022/04/09 07:25:44;;;;;;;13.30;2.10;;;7.40;99.90;;;;;;4995372;28;20477;-73
2022/04/09 07:28:09;;;;;;;12.00;2.08;;;7.40;99.90;;;;;;4995463;28;20046;-74
2022/04/09 07:30:35;;;;;;;12.38;2.30;;;7.70;99.90;;;;;;4978075;28;20046;-72
2022/04/09 07:33:01;;;;;;;12.48;2.67;;;8.00;99.90;;;;;;4978544;28;20057;-74
2022/04/09 07:35:27;;;;;;;7.20;1.70;;;8.10;99.90;;;;;;4978284;28;20089;-72
2022/04/09 07:37:58;;;;;;;7.70;1.70;;;8.00;99.90;;;;;;4995649;28;20450;-70
2022/04/09 07:40:25;;;;;;;11.13;1.80;;;7.80;99.90;;;;;;4995572;28;20093;-74
2022/04/09 07:42:51;;;;;;;8.13;2.08;;;7.70;99.90;;;;;;4995063;28;20051;-74
2022/04/09 07:45:18;;;;;;;13.43;1.85;;;7.60;99.90;;;;;;4995554;28;20125;-72
2022/04/09 07:47:51;;;;;;;13.80;2.00;;;7.70;99.90;;;;;;4977788;28;20501;-73
2022/04/09 07:50:17;;;;;;;12.98;2.17;;;7.80;99.90;;;;;;4995091;28;20058;-73
2022/04/09 07:52:43;;;;;;;9.90;1.60;;;7.90;99.90;;;;;;4994262;28;20519;-72
2022/04/09 07:55:11;;;;;;;8.00;1.55;;;7.90;99.90;;;;;;4978293;28;20078;-74
2022/04/09 07:57:38;;;;;;;9.32;1.60;;;7.80;99.90;;;;;;4977770;28;20129;-73
2022/04/09 08:00:04;;;;;;;8.60;1.67;;;7.70;99.90;;;;;;4995130;28;20438;-73
2022/04/09 08:02:30;;;;;;;7.53;1.77;;;7.70;99.90;;;;;;4977316;28;20042;-74
2022/04/09 08:04:55;;;;;;;12.90;2.28;;;7.70;99.90;;;;;;4995095;28;20046;-72
2022/04/09 08:07:21;;;;;;;14.35;2.03;;;7.80;99.90;;;;;;4995363;28;20031;-73
2022/04/09 08:09:46;;;;;;;9.32;2.10;;;7.80;99.90;;;;;;4999272;28;20046;-74
2022/04/09 08:12:12;;;;;;;8.85;1.90;;;7.80;99.90;;;;;;4999181;28;20365;-73
2022/04/09 08:14:39;;;;;;;15.18;2.20;;;7.80;99.90;;;;;;4981420;28;20414;-72
2022/04/09 08:17:05;;;;;;;14.35;2.22;;;7.70;99.90;;;;;;4999058;28;20030;-73
2022/04/09 08:19:30;;;;;;;10.35;2.08;;;7.70;99.90;;;;;;4998810;28;20035;-73
2022/04/09 08:21:57;;;;;;;11.55;2.03;;;7.80;99.90;;;;;;4981534;28;20046;-73
2022/04/09 08:24:23;;;;;;;12.38;1.77;;;8.00;99.90;;;;;;4997774;28;20042;-73
2022/04/09 08:26:48;;;;;;;12.02;2.20;;;8.10;99.90;;;;;;4998446;28;20480;-73
2022/04/09 08:29:19;;;;;;;11.25;2.13;;;8.40;99.90;;;;;;4998821;28;20474;-73
2022/04/09 08:31:47;;;;;;;10.30;1.92;;;8.60;99.90;;;;;;4998643;28;20050;-74
2022/04/09 08:34:14;;;;;;;9.35;1.60;;;8.70;99.90;;;;;;4997941;28;20046;-73
2022/04/09 08:36:39;;;;;;;12.80;2.47;;;8.70;99.90;;;;;;4998379;28;20046;-73
2022/04/09 08:39:05;;;;;;;15.25;2.53;;;8.70;99.90;;;;;;4980966;28;20042;-73
2022/04/09 08:41:31;;;;;;;10.93;2.30;;;8.70;99.90;;;;;;4998460;28;20184;-73
2022/04/09 08:43:57;;;;;;;12.93;3.03;;;8.60;99.90;;;;;;4997418;28;20474;-73
2022/04/09 08:46:25;;;;;;;9.68;2.05;;;8.50;99.90;;;;;;4998413;28;20042;-73
2022/04/09 08:48:51;;;;;;;9.57;2.10;;;8.90;99.90;;;;;;4980669;28;20069;-73
2022/04/09 08:51:17;;;;;;;13.82;2.30;;;9.30;99.90;;;;;;4981730;28;20371;-73
2022/04/09 08:53:44;;;;;;;9.48;2.35;;;9.30;99.90;;;;;;4997308;28;20054;-73
2022/04/09 08:56:11;;;;;;;10.07;2.65;;;9.40;99.90;;;;;;4977512;28;20510;-73
2022/04/09 08:58:36;;;;;;;12.48;3.65;;;9.60;99.90;;;;;;4981149;28;20360;-74
2022/04/09 09:01:02;;;;;;;12.65;2.60;;;9.60;99.90;;;;;;4980749;28;20047;-73
2022/04/09 09:03:27;;;;;;;11.02;2.13;;;9.80;99.90;;;;;;4997616;28;20482;-74
2022/04/09 09:05:53;;;;;;;12.25;2.45;;;10.00;99.90;;;;;;4997869;28;20406;-74
2022/04/09 09:08:37;;;;;;;10.07;2.45;;;9.90;99.90;;;;;;4998009;28;20126;-74
2022/04/09 09:11:02;;;;;;;;;;;9.90;99.90;;;;;;4998373;28;20061;-73
2022/04/09 09:13:28;;;;;;;11.43;2.28;;;10.00;99.90;;;;;;4996486;28;19921;-73
2022/04/09 09:15:55;;;;;;;7.80;1.65;;;10.10;99.90;;;;;;4997292;28;20120;-74
2022/04/09 09:18:22;;;;;;;7.00;1.63;;;9.60;99.90;;;;;;4979964;28;20133;-74
2022/04/09 09:20:49;;;;;;;5.78;1.15;;;8.80;99.90;;;;;;4996655;28;20035;-74
2022/04/09 09:23:21;;;;;;;6.20;1.65;;;8.10;99.90;;;;;;4997231;28;20038;-72
2022/04/09 09:25:51;;;;;;;5.40;1.75;;;7.50;99.90;;;;;;4997617;28;20125;-71
2022/04/09 09:28:26;;;;;;;6.32;1.40;;;7.20;99.90;;;;;;4997499;28;20086;-72
2022/04/09 09:30:52;;;;;;;4.70;1.30;;;7.10;99.90;;;;;;4997520;28;20050;-73
2022/04/09 09:33:18;;;;;;;5.90;1.67;;;6.90;99.90;;;;;;4996723;28;20042;-72
2022/04/09 09:35:48;;;;;;;7.47;1.70;;;6.80;99.90;;;;;;4997370;28;20042;-73
2022/04/09 09:38:24;;;;;;;6.07;1.55;;;7.10;99.90;;;;;;4979846;28;20046;-72
2022/04/09 09:40:50;;;;;;;10.38;1.77;;;7.20;99.90;;;;;;4980098;28;20054;-73
2022/04/09 09:43:21;;;;;;;7.47;1.90;;;7.20;99.90;;;;;;4979294;28;20045;-72
2022/04/09 09:45:49;;;;;;;4.35;1.30;;;7.00;99.90;;;;;;4996768;28;20046;-73
2022/04/09 09:48:25;;;;;;;4.32;1.40;;;7.00;99.90;;;;;;4996792;28;20055;-73
2022/04/09 09:50:55;;;;;;;9.15;1.52;;;7.10;99.90;;;;;;4997206;28;20125;-72
2022/04/09 09:53:34;;;;;;;6.65;1.40;;;7.30;99.90;;;;;;4979227;28;20439;-72
2022/04/09 09:56:01;;;;;;;10.80;1.45;;;7.50;99.90;;;;;;4996897;28;20050;-74
2022/04/09 09:58:28;;;;;;;10.02;1.67;;;7.80;99.90;;;;;;4979782;28;20081;-72
2022/04/09 10:00:58;;;;;;;6.35;1.65;;;8.20;99.90;;;;;;4996138;28;20086;-72
2022/04/09 10:03:25;;;;;;;10.35;2.58;;;8.60;99.90;;;;;;4996877;28;20058;-73
2022/04/09 10:05:51;;;;;;;12.27;1.58;;;8.70;99.90;;;;;;4979320;28;20054;-74
2022/04/09 10:08:19;;;;;;;10.27;2.22;;;8.20;99.90;;;;;;4996659;28;20364;-74
2022/04/09 10:10:50;;;;;;;6.60;1.55;;;7.40;99.90;;;;;;4995725;28;20061;-74
2022/04/09 10:13:21;;;;;;;7.82;1.60;;;6.70;99.90;;;;;;4996670;28;20066;-73
2022/04/09 10:15:51;;;;;;;6.65;1.40;;;6.40;99.90;;;;;;4996899;28;20038;-72
2022/04/09 10:18:22;;;;;;;7.65;1.60;;;6.40;99.90;;;;;;4999047;28;20056;-73
2022/04/09 10:20:54;;;;;;;7.53;1.73;;;6.60;99.90;;;;;;4985863;28;20053;-74
2022/04/09 10:23:22;;;;;;;3.78;1.40;;;6.80;99.90;;;;;;5010525;28;20064;-73
2022/04/09 10:25:51;;;;;;;4.13;1.20;;;7.10;99.90;;;;;;5015819;28;20434;-72
2022/04/09 10:28:33;;;;;;;7.78;1.60;;;7.20;99.90;;;;;;4982601;28;20049;-72
2022/04/09 10:30:58;;;;;;;2.60;1.05;;;7.50;99.90;;;;;;5000749;28;20042;-73
2022/04/09 10:33:30;;;;;;;4.70;1.60;;;7.60;99.90;;;;;;4979155;28;20038;-73
2022/04/09 10:36:02;;;;;;;4.68;1.30;;;7.80;99.90;;;;;;4996074;28;20171;-74
2022/04/09 10:38:29;;;;;;;3.25;1.00;;;7.90;99.90;;;;;;4996110;28;20121;-73
2022/04/09 10:40:57;;;;;;;4.57;1.00;;;8.30;99.90;;;;;;4994402;28;20042;-74
2022/04/09 10:43:26;;;;;;;5.13;1.50;;;8.20;99.90;;;;;;4996088;28;20042;-72
2022/04/09 10:46:00;;;;;;;5.97;2.15;;;8.40;99.90;;;;;;4994357;28;20550;-73
2022/04/09 10:48:33;;;;;;;8.60;2.17;;;8.50;99.90;;;;;;4978511;28;20065;-71
2022/04/09 10:51:01;;;;;;;3.72;1.20;;;8.50;99.90;;;;;;4995982;28;20141;-72
2022/04/09 10:53:31;;;;;;;5.65;1.45;;;8.60;99.90;;;;;;4996332;28;20052;-74
2022/04/09 10:56:20;;;;;;;7.00;1.83;;;8.60;99.90;;;;;;4992447;28;20564;-72
2022/04/09 10:59:10;;;;;;;7.78;1.77;;;8.60;99.90;;;;;;4994884;28;20050;-75
2022/04/09 11:01:48;;;;;;;8.70;1.80;;;8.70;99.90;;;;;;4976749;28;20054;-71
2022/04/09 11:07:14;;;;;;;9.27;1.48;;;9.20;99.90;;;;;;4991750;28;20117;-71
2022/04/09 11:10:00;;;;;;;7.57;1.45;;;9.00;99.90;;;;;;4995982;28;20054;-72
2022/04/09 11:12:39;;;;;;;8.60;1.55;;;8.70;99.90;;;;;;4992434;28;20046;-72
2022/04/09 11:15:14;;;;;;;10.32;3.00;;;8.50;99.90;;;;;;4978060;28;20100;-73
2022/04/09 11:17:47;;;;;;;10.13;1.63;;;8.30;99.90;;;;;;4995489;28;20390;-72
2022/04/09 11:20:18;;;;;;;7.43;2.40;;;8.20;99.90;;;;;;4995799;28;20050;-72
2022/04/09 11:22:52;;;;;;;11.38;2.20;;;8.10;99.90;;;;;;4978018;28;20053;-73
2022/04/09 11:25:21;;;;;;;7.55;1.80;;;8.20;99.90;;;;;;4995325;28;20362;-71
2022/04/09 11:27:47;;;;;;;10.88;2.00;;;8.30;99.90;;;;;;4995459;28;20102;-71
2022/04/09 11:30:13;;;;;;;8.65;1.70;;;8.30;99.90;;;;;;4995764;28;20038;-71
2022/04/09 11:32:39;;;;;;;6.30;1.50;;;8.30;99.90;;;;;;4995372;28;20058;-73
2022/04/09 11:35:10;;;;;;;7.38;1.88;;;8.50;99.90;;;;;;4978181;28;20050;-73
2022/04/09 11:37:39;;;;;;;7.68;1.45;;;8.90;99.90;;;;;;4995194;28;20125;-73
2022/04/09 11:40:06;;;;;;;7.90;2.00;;;9.20;99.90;;;;;;4995278;28;20050;-72
2022/04/09 11:42:47;;;;;;;6.30;1.40;;;9.30;99.90;;;;;;4996120;28;20038;-73
2022/04/09 11:45:32;;;;;;;10.07;1.75;;;9.40;99.90;;;;;;4999586;28;20063;-73
2022/04/09 11:48:02;;;;;;;7.60;1.98;;;9.50;99.90;;;;;;4980550;28;20054;-72
2022/04/09 11:50:45;;;;;;;7.75;2.25;;;9.70;99.90;;;;;;5007821;28;20061;-73
2022/04/09 11:53:19;;;;;;;9.77;3.20;;;9.90;99.90;;;;;;4992182;28;20034;-74
2022/04/09 11:55:46;;;;;;;7.97;2.00;;;10.20;99.90;;;;;;4998194;28;20406;-73
2022/04/09 11:58:18;;;;;;;12.80;2.35;;;10.30;99.90;;;;;;4997666;28;20481;-72
2022/04/09 12:00:45;;;;;;;8.80;2.92;;;10.30;99.90;;;;;;4998276;28;20046;-72
2022/04/09 12:03:12;;;;;;;8.38;2.90;;;9.90;99.90;;;;;;4998942;28;20042;-73
2022/04/09 12:05:44;;;;;;;7.45;1.70;;;9.30;99.90;;;;;;4998153;28;20046;-69
2022/04/09 12:08:16;;;;;;;5.93;2.00;;;9.00;99.90;;;;;;4998542;28;20474;-69
2022/04/09 12:10:56;;;;;;;7.50;2.17;;;8.70;99.90;;;;;;4998550;28;20054;-68
2022/04/09 12:13:36;;;;;;;9.85;2.22;;;8.50;99.90;;;;;;4998519;28;20101;-72
2022/04/09 12:16:10;;;;;;;9.90;1.35;;;8.40;99.90;;;;;;4978671;28;20458;-73
2022/04/09 12:18:38;;;;;;;8.27;1.70;;;8.10;99.90;;;;;;4961975;28;20125;-72
2022/04/09 12:21:24;;;;;;;6.45;1.67;;;7.60;99.90;;;;;;4979059;28;20047;-72
2022/04/09 12:24:09;;;;;;;4.72;1.20;;;7.40;99.90;;;;;;4981638;28;20054;-73
2022/04/09 12:26:42;;;;;;;10.82;2.20;;;7.30;99.90;;;;;;4981935;28;20369;-72
2022/04/09 12:29:24;;;;;;;10.13;2.25;;;7.50;99.90;;;;;;4981402;28;20054;-72
2022/04/09 12:31:51;;;;;;;10.32;2.28;;;7.90;99.90;;;;;;4998416;28;20058;-73
2022/04/09 12:34:18;;;;;;;12.05;2.22;;;8.00;99.90;;;;;;4980345;28;20038;-72
2022/04/09 12:37:06;;;;;;;7.10;1.70;;;8.30;99.90;;;;;;4998576;28;20047;-71
2022/04/09 12:39:34;;;;;;;7.55;1.50;;;8.40;99.90;;;;;;4997526;28;20046;-72
2022/04/09 12:42:00;;;;;;;6.63;2.17;;;8.60;99.90;;;;;;4978764;28;20066;-72
2022/04/09 12:44:28;;;;;;;6.70;1.83;;;8.70;99.90;;;;;;4977786;28;20348;-73
2022/04/09 12:46:54;;;;;;;7.70;1.90;;;8.70;99.90;;;;;;4998596;28;20104;-72
2022/04/09 12:49:37;;;;;;;7.20;1.50;;;8.80;99.90;;;;;;4998334;28;20094;-71
2022/04/09 12:52:05;;;;;;;6.60;1.65;;;8.80;99.90;;;;;;4998052;28;20042;-73
2022/04/09 12:54:32;;;;;;;4.97;1.70;;;9.00;99.90;;;;;;4996584;28;20054;-73
2022/04/09 12:57:04;;;;;;;5.75;1.45;;;9.00;99.90;;;;;;4981147;28;20363;-72
2022/04/09 12:59:30;;;;;;;9.07;1.70;;;9.00;99.90;;;;;;4997986;28;20429;-73
2022/04/09 13:01:55;;;;;;;8.15;1.55;;;9.10;99.90;;;;;;4980620;28;20050;-73